Time;durP1;ratioP1;P1;durP2;ratioP2;P2;SDS_P1;SDS_P2;PMS_P1;PMS_P2;Temp;Humidity;BMP_temperature;BMP_pressure;BME280_temperature;BME280_humidity;BME280_pressure;Samples;Min_cycle;Max_cycle;Signal;HPM_P1;HPM_P2
2021/12/26 00:00:48;;;;;;;1.98;0.88;;;;;;;;;;4984465;28;20061;-60
2021/12/26 00:03:15;;;;;;;1.75;0.80;;;;;;;;;;4988820;28;20058;-58
2021/12/26 00:05:42;;;;;;;4.22;1.23;;;;;;;;;;4984718;28;20066;-65
2021/12/26 00:08:08;;;;;;;2.90;0.80;;;;;;;;;;5019542;28;20062;-61
2021/12/26 00:10:36;;;;;;;1.92;0.73;;;;;;;;;;4985046;28;20132;-58
2021/12/26 00:13:04;;;;;;;2.20;0.77;;;;;;;;;;4989218;28;20492;-60
2021/12/26 00:15:31;;;;;;;2.58;0.88;;;;;;;;;;4986981;28;20065;-60
2021/12/26 00:17:57;;;;;;;1.60;0.80;;;;;;;;;;4989203;28;20069;-60
2021/12/26 00:20:25;;;;;;;2.28;0.80;;;;;;;;;;4986086;28;20047;-59
2021/12/26 00:22:51;;;;;;;1.23;0.73;;;;;;;;;;4988000;28;20050;-57
2021/12/26 00:25:18;;;;;;;5.05;1.33;;;;;;;;;;4988386;28;20137;-57
2021/12/26 00:27:46;;;;;;;4.15;1.20;;;;;;;;;;4984715;28;20065;-57
2021/12/26 00:30:15;;;;;;;2.63;1.08;;;;;;;;;;5020685;28;20061;-55
2021/12/26 00:32:42;;;;;;;2.28;0.68;;;;;;;;;;4983701;28;20157;-59
2021/12/26 00:35:10;;;;;;;2.83;1.00;;;;;;;;;;4986431;28;20109;-61
2021/12/26 00:37:37;;;;;;;2.90;1.20;;;;;;;;;;4984691;28;20055;-51
2021/12/26 00:40:04;;;;;;;1.23;0.88;;;;;;;;;;4987132;28;20065;-66
2021/12/26 00:42:31;;;;;;;1.48;0.93;;;;;;;;;;4984295;28;20050;-54
2021/12/26 00:44:59;;;;;;;2.03;0.80;;;;;;;;;;4988148;28;20165;-55
2021/12/26 00:47:29;;;;;;;4.85;0.98;;;;;;;;;;4985205;28;20069;-60
2021/12/26 00:49:56;;;;;;;1.45;0.80;;;;;;;;;;4988630;28;20163;-55
2021/12/26 00:52:23;;;;;;;1.77;0.68;;;;;;;;;;4984438;28;20046;-60
2021/12/26 00:54:50;;;;;;;1.35;0.77;;;;;;;;;;4988465;28;20058;-60
2021/12/26 00:57:16;;;;;;;1.38;0.63;;;;;;;;;;4984373;28;20054;-61
2021/12/26 00:59:43;;;;;;;2.40;0.77;;;;;;;;;;4987958;28;20050;-62
2021/12/26 01:02:11;;;;;;;1.95;1.08;;;;;;;;;;4983515;28;20061;-63
2021/12/26 01:04:40;;;;;;;2.97;1.00;;;;;;;;;;4988174;28;20062;-59
2021/12/26 01:07:13;;;;;;;3.05;0.75;;;;;;;;;;4987888;28;20046;-57
2021/12/26 01:09:40;;;;;;;2.33;0.90;;;;;;;;;;4988039;28;20081;-60
2021/12/26 01:12:13;;;;;;;1.27;0.63;;;;;;;;;;4987798;28;20054;-59
2021/12/26 01:14:47;;;;;;;1.90;0.90;;;;;;;;;;4983610;28;20125;-58
2021/12/26 01:17:22;;;;;;;2.03;0.95;;;;;;;;;;4987242;28;20050;-65
2021/12/26 01:19:52;;;;;;;2.65;1.00;;;;;;;;;;4982393;28;20054;-59
2021/12/26 01:22:19;;;;;;;1.77;0.70;;;;;;;;;;4988514;28;20061;-59
2021/12/26 01:24:48;;;;;;;1.58;0.60;;;;;;;;;;4984120;28;20073;-59
2021/12/26 01:27:14;;;;;;;;;;;;;;;;;;4988831;28;20061;-60
2021/12/26 01:29:41;;;;;;;2.20;0.77;;;;;;;;;;5016949;28;19926;-63
2021/12/26 01:32:08;;;;;;;2.10;0.80;;;;;;;;;;4987078;28;21438;-68
2021/12/26 01:34:36;;;;;;;1.70;0.63;;;;;;;;;;4983782;28;20054;-66
2021/12/26 01:37:02;;;;;;;0.70;0.50;;;;;;;;;;4988807;28;20064;-55
2021/12/26 01:39:29;;;;;;;2.40;0.85;;;;;;;;;;4987062;28;20424;-68
2021/12/26 01:42:01;;;;;;;1.75;0.80;;;;;;;;;;4990342;28;20065;-64
2021/12/26 01:44:28;;;;;;;2.65;1.00;;;;;;;;;;4983252;28;20089;-64
2021/12/26 01:46:54;;;;;;;0.95;0.65;;;;;;;;;;4987022;28;20104;-69
2021/12/26 01:49:22;;;;;;;2.65;0.80;;;;;;;;;;4984159;28;20060;-71
2021/12/26 01:51:51;;;;;;;1.33;0.73;;;;;;;;;;4987588;28;20077;-64
2021/12/26 01:54:28;;;;;;;2.63;0.80;;;;;;;;;;4983987;28;20050;-68
2021/12/26 01:56:54;;;;;;;1.58;0.93;;;;;;;;;;4986617;28;20070;-67
2021/12/26 01:59:21;;;;;;;1.48;0.70;;;;;;;;;;4983313;28;20140;-64
2021/12/26 02:01:48;;;;;;;1.92;0.60;;;;;;;;;;4988096;28;20108;-69
2021/12/26 02:04:14;;;;;;;1.60;0.70;;;;;;;;;;4987554;28;20054;-68
2021/12/26 02:06:41;;;;;;;1.52;0.85;;;;;;;;;;4982764;28;20148;-59
2021/12/26 02:09:12;;;;;;;2.10;0.90;;;;;;;;;;4986991;28;20057;-62
2021/12/26 02:11:39;;;;;;;2.20;0.93;;;;;;;;;;4983411;28;20134;-69
2021/12/26 02:14:06;;;;;;;2.28;0.95;;;;;;;;;;4986956;28;20104;-70
2021/12/26 02:16:32;;;;;;;4.95;1.40;;;;;;;;;;4983003;28;20069;-59
2021/12/26 02:18:59;;;;;;;2.72;0.90;;;;;;;;;;4986915;28;20073;-64
2021/12/26 02:21:44;;;;;;;1.88;0.73;;;;;;;;;;4983678;28;20066;-63
2021/12/26 02:24:16;;;;;;;1.27;0.60;;;;;;;;;;4986906;28;20058;-61
2021/12/26 02:29:27;;;;;;;2.45;0.77;;;;;;;;;;4986250;28;20050;-62
2021/12/26 02:31:54;;;;;;;0.77;0.45;;;;;;;;;;4983299;28;20057;-60
2021/12/26 02:34:21;;;;;;;3.72;0.98;;;;;;;;;;4986822;28;20062;-66
2021/12/26 02:36:49;;;;;;;3.60;1.10;;;;;;;;;;4983043;28;20093;-62
2021/12/26 02:39:16;;;;;;;1.85;0.70;;;;;;;;;;4986111;28;20054;-62
2021/12/26 02:41:43;;;;;;;2.42;0.88;;;;;;;;;;4982426;28;20054;-63
2021/12/26 02:44:09;;;;;;;1.92;0.82;;;;;;;;;;4986929;28;20255;-61
2021/12/26 02:46:36;;;;;;;2.83;0.80;;;;;;;;;;4982739;28;20112;-64
2021/12/26 02:49:03;;;;;;;1.17;0.63;;;;;;;;;;4987015;28;20054;-64
2021/12/26 02:51:29;;;;;;;1.08;0.70;;;;;;;;;;4983041;28;20042;-66
2021/12/26 02:53:57;;;;;;;0.82;0.52;;;;;;;;;;4986454;28;20082;-66
2021/12/26 02:56:24;;;;;;;3.22;1.00;;;;;;;;;;4985580;28;20141;-59
2021/12/26 02:58:51;;;;;;;2.65;0.95;;;;;;;;;;5020835;28;20054;-59
2021/12/26 03:03:48;;;;;;;1.75;0.88;;;;;;;;;;5230308;24;20051;-63
2021/12/26 03:06:19;;;;;;;1.38;0.75;;;;;;;;;;4949495;28;20051;-69
2021/12/26 03:08:49;;;;;;;2.35;1.00;;;;;;;;;;4944717;28;20051;-64
2021/12/26 03:11:24;;;;;;;2.40;0.88;;;;;;;;;;4951129;28;20059;-65
2021/12/26 03:13:51;;;;;;;3.40;1.08;;;;;;;;;;4941046;28;20106;-69
2021/12/26 03:16:17;;;;;;;1.58;0.75;;;;;;;;;;4951303;28;20055;-65
2021/12/26 03:18:44;;;;;;;3.83;0.82;;;;;;;;;;4946585;28;20062;-67
2021/12/26 03:21:11;;;;;;;1.88;0.80;;;;;;;;;;4967207;28;20138;-67
2021/12/26 03:23:37;;;;;;;1.27;0.65;;;;;;;;;;4967423;28;20119;-65
2021/12/26 03:26:05;;;;;;;1.45;0.73;;;;;;;;;;4945955;28;20154;-61
2021/12/26 03:28:33;;;;;;;4.07;0.90;;;;;;;;;;4951109;28;20122;-63
2021/12/26 03:31:01;;;;;;;2.47;0.80;;;;;;;;;;4945214;28;20070;-61
2021/12/26 03:33:28;;;;;;;2.20;0.98;;;;;;;;;;4951251;28;20055;-63
2021/12/26 03:35:55;;;;;;;2.22;0.55;;;;;;;;;;4946234;28;20126;-62
2021/12/26 03:38:22;;;;;;;4.60;0.70;;;;;;;;;;4951027;28;20122;-59
2021/12/26 03:40:49;;;;;;;1.77;0.75;;;;;;;;;;4963915;28;20067;-61
2021/12/26 03:43:16;;;;;;;2.28;0.70;;;;;;;;;;4948986;28;20063;-60
2021/12/26 03:45:48;;;;;;;2.47;0.90;;;;;;;;;;4966949;28;20054;-64
2021/12/26 03:48:15;;;;;;;0.95;0.80;;;;;;;;;;4946289;28;20055;-62
2021/12/26 03:50:42;;;;;;;2.17;0.90;;;;;;;;;;4951638;28;20055;-60
2021/12/26 03:53:09;;;;;;;1.10;0.63;;;;;;;;;;4946356;28;20062;-64
2021/12/26 03:55:35;;;;;;;3.33;1.10;;;;;;;;;;4950917;28;20066;-67
2021/12/26 03:58:02;;;;;;;2.13;0.80;;;;;;;;;;4946027;28;20078;-59
2021/12/26 04:00:30;;;;;;;2.92;0.98;;;;;;;;;;4950031;28;20051;-62
2021/12/26 04:02:58;;;;;;;2.20;0.60;;;;;;;;;;4956811;28;20142;-67
2021/12/26 04:05:25;;;;;;;1.90;0.90;;;;;;;;;;4965390;28;20118;-62
2021/12/26 04:07:51;;;;;;;0.93;0.60;;;;;;;;;;4949729;28;20058;-61
2021/12/26 04:10:19;;;;;;;1.63;0.82;;;;;;;;;;4963656;28;20138;-62
2021/12/26 04:12:48;;;;;;;1.50;0.68;;;;;;;;;;4950408;28;20059;-61
2021/12/26 04:15:16;;;;;;;2.67;1.00;;;;;;;;;;4963583;28;20074;-61
2021/12/26 04:17:42;;;;;;;3.38;0.90;;;;;;;;;;4949887;28;20055;-62
2021/12/26 04:20:11;;;;;;;1.85;0.80;;;;;;;;;;4950252;28;20051;-63
2021/12/26 04:22:38;;;;;;;1.02;0.63;;;;;;;;;;4970734;28;20117;-63
2021/12/26 04:25:05;;;;;;;1.67;0.70;;;;;;;;;;4968193;28;20050;-66
2021/12/26 04:27:32;;;;;;;3.03;0.88;;;;;;;;;;4970159;28;20059;-65
2021/12/26 04:29:58;;;;;;;3.63;0.95;;;;;;;;;;4969683;28;20177;-63
2021/12/26 04:32:25;;;;;;;1.52;0.40;;;;;;;;;;4966195;28;20059;-63
2021/12/26 04:34:51;;;;;;;1.65;0.80;;;;;;;;;;4969489;28;20067;-59
2021/12/26 04:37:20;;;;;;;2.63;0.80;;;;;;;;;;4965395;28;20104;-66
2021/12/26 04:39:46;;;;;;;1.38;0.47;;;;;;;;;;4969322;28;20054;-59
2021/12/26 04:42:13;;;;;;;1.23;0.70;;;;;;;;;;4964584;28;20055;-59
2021/12/26 04:44:40;;;;;;;5.90;0.98;;;;;;;;;;4997488;28;20070;-62
2021/12/26 04:47:06;;;;;;;2.17;0.60;;;;;;;;;;4994042;28;20105;-64
2021/12/26 04:49:33;;;;;;;2.03;0.82;;;;;;;;;;4998073;28;20053;-59
2021/12/26 04:52:00;;;;;;;2.47;0.70;;;;;;;;;;4994349;28;20054;-65
2021/12/26 04:54:28;;;;;;;2.80;0.90;;;;;;;;;;4951852;28;20107;-64
2021/12/26 04:56:54;;;;;;;2.17;0.60;;;;;;;;;;4945730;28;20054;-61
2021/12/26 04:59:21;;;;;;;0.90;0.57;;;;;;;;;;4949465;28;20058;-60
2021/12/26 05:01:47;;;;;;;2.17;0.85;;;;;;;;;;4964792;28;20137;-62
2021/12/26 05:04:14;;;;;;;2.42;0.70;;;;;;;;;;4968155;28;20078;-61
2021/12/26 05:06:41;;;;;;;1.38;0.68;;;;;;;;;;4983509;28;20160;-66
2021/12/26 05:09:07;;;;;;;3.42;0.88;;;;;;;;;;4987982;28;20061;-60
2021/12/26 05:11:38;;;;;;;0.93;0.60;;;;;;;;;;4979036;28;20054;-60
2021/12/26 05:14:05;;;;;;;0.85;0.57;;;;;;;;;;4984632;28;20309;-62
2021/12/26 05:16:31;;;;;;;4.32;1.13;;;;;;;;;;5004460;28;20137;-63
2021/12/26 05:18:58;;;;;;;1.35;0.60;;;;;;;;;;4983112;28;20130;-65
2021/12/26 05:21:24;;;;;;;3.90;0.77;;;;;;;;;;4966806;28;20055;-65
2021/12/26 05:23:51;;;;;;;2.42;0.68;;;;;;;;;;4964700;28;20258;-59
2021/12/26 05:26:18;;;;;;;4.43;1.15;;;;;;;;;;4968087;28;20110;-62
2021/12/26 05:28:45;;;;;;;5.75;0.90;;;;;;;;;;4964926;28;20073;-65
2021/12/26 05:31:12;;;;;;;2.45;0.93;;;;;;;;;;4984690;28;20052;-62
2021/12/26 05:33:39;;;;;;;1.58;0.77;;;;;;;;;;4963936;28;20078;-64
2021/12/26 05:36:06;;;;;;;1.42;0.60;;;;;;;;;;4967235;28;20042;-60
2021/12/26 05:38:32;;;;;;;1.63;0.77;;;;;;;;;;4955918;28;20145;-59
2021/12/26 05:40:59;;;;;;;0.73;0.50;;;;;;;;;;4968389;28;20135;-63
2021/12/26 05:43:26;;;;;;;2.53;0.95;;;;;;;;;;4962776;28;20062;-60
2021/12/26 05:45:54;;;;;;;0.93;0.60;;;;;;;;;;4982017;28;20055;-62
2021/12/26 05:48:20;;;;;;;3.08;0.57;;;;;;;;;;4948294;28;20059;-63
2021/12/26 05:50:52;;;;;;;2.60;1.00;;;;;;;;;;4968978;28;20109;-61
2021/12/26 05:53:18;;;;;;;4.90;1.15;;;;;;;;;;4967855;28;20125;-62
2021/12/26 05:55:45;;;;;;;1.65;1.00;;;;;;;;;;4997988;28;20062;-60
2021/12/26 05:58:11;;;;;;;1.70;0.70;;;;;;;;;;4987324;28;20132;-61
2021/12/26 06:00:38;;;;;;;1.52;0.75;;;;;;;;;;4983554;28;20117;-63
2021/12/26 06:03:06;;;;;;;2.10;0.80;;;;;;;;;;4983573;28;20054;-60
2021/12/26 06:05:33;;;;;;;3.30;0.88;;;;;;;;;;4993309;28;20069;-60
2021/12/26 06:07:59;;;;;;;2.30;0.98;;;;;;;;;;5003887;28;20066;-61
2021/12/26 06:10:26;;;;;;;1.48;0.55;;;;;;;;;;4996006;28;20058;-62
2021/12/26 06:12:53;;;;;;;3.38;0.82;;;;;;;;;;4988245;28;20137;-60
2021/12/26 06:15:20;;;;;;;1.40;0.70;;;;;;;;;;4964219;28;20051;-63
2021/12/26 06:17:47;;;;;;;2.67;1.08;;;;;;;;;;4967697;28;20066;-63
2021/12/26 06:20:15;;;;;;;3.40;1.20;;;;;;;;;;4985871;28;20072;-66
2021/12/26 06:22:42;;;;;;;1.40;0.68;;;;;;;;;;4986229;28;20054;-58
2021/12/26 06:25:09;;;;;;;1.00;0.40;;;;;;;;;;4978505;28;20165;-60
2021/12/26 06:27:36;;;;;;;0.68;0.38;;;;;;;;;;4967342;28;20113;-61
2021/12/26 06:30:04;;;;;;;1.75;0.52;;;;;;;;;;4963836;28;20051;-59
2021/12/26 06:32:30;;;;;;;1.52;0.75;;;;;;;;;;4967092;28;20055;-60
2021/12/26 06:34:57;;;;;;;2.60;0.73;;;;;;;;;;4967226;28;20179;-58
2021/12/26 06:37:25;;;;;;;1.15;0.52;;;;;;;;;;4963558;28;20137;-58
2021/12/26 06:39:51;;;;;;;4.55;0.70;;;;;;;;;;4978722;28;20047;-58
2021/12/26 06:42:20;;;;;;;1.70;0.70;;;;;;;;;;4998984;28;20062;-59
2021/12/26 06:44:47;;;;;;;1.15;0.60;;;;;;;;;;5003377;28;20050;-60
2021/12/26 06:47:13;;;;;;;1.65;0.70;;;;;;;;;;4985699;28;20118;-60
2021/12/26 06:49:42;;;;;;;3.33;1.00;;;;;;;;;;4967649;28;20062;-60
2021/12/26 06:52:08;;;;;;;3.78;0.85;;;;;;;;;;4964980;28;20051;-58
2021/12/26 06:54:38;;;;;;;1.65;0.68;;;;;;;;;;4967987;28;20058;-58
2021/12/26 06:57:05;;;;;;;2.22;1.00;;;;;;;;;;4963727;28;20090;-61
2021/12/26 06:59:31;;;;;;;1.08;0.52;;;;;;;;;;4967122;28;20141;-59
2021/12/26 07:01:58;;;;;;;0.93;0.68;;;;;;;;;;4970492;28;20046;-63
2021/12/26 07:04:24;;;;;;;1.50;0.63;;;;;;;;;;4986575;28;20078;-66
2021/12/26 07:06:51;;;;;;;1.73;0.90;;;;;;;;;;4995106;28;20218;-65
2021/12/26 07:09:18;;;;;;;1.05;0.60;;;;;;;;;;4981143;28;20082;-62
2021/12/26 07:11:47;;;;;;;1.17;0.65;;;;;;;;;;4981971;28;20109;-65
2021/12/26 07:14:14;;;;;;;1.92;0.80;;;;;;;;;;4986513;28;20058;-59
2021/12/26 07:16:40;;;;;;;1.75;0.73;;;;;;;;;;4985501;28;20068;-61
2021/12/26 07:19:07;;;;;;;1.98;0.93;;;;;;;;;;5000570;28;20054;-63
2021/12/26 07:21:34;;;;;;;2.17;1.02;;;;;;;;;;4986511;28;20158;-61
2021/12/26 07:24:01;;;;;;;3.03;0.68;;;;;;;;;;4982496;28;20059;-64
2021/12/26 07:26:27;;;;;;;2.50;0.90;;;;;;;;;;4966891;28;20063;-66
2021/12/26 07:28:55;;;;;;;2.95;1.10;;;;;;;;;;4976626;28;20082;-60
2021/12/26 07:31:22;;;;;;;3.03;0.80;;;;;;;;;;5002260;28;20082;-61
2021/12/26 07:33:48;;;;;;;2.20;0.98;;;;;;;;;;4986745;28;20050;-65
2021/12/26 07:36:15;;;;;;;3.20;1.15;;;;;;;;;;4966164;28;20089;-59
2021/12/26 07:38:41;;;;;;;2.78;0.90;;;;;;;;;;4972537;28;20061;-65
2021/12/26 07:41:10;;;;;;;2.80;1.05;;;;;;;;;;4999854;28;20106;-67
2021/12/26 07:43:37;;;;;;;1.52;0.60;;;;;;;;;;4975465;28;20051;-61
2021/12/26 07:46:05;;;;;;;1.75;0.75;;;;;;;;;;4969726;28;20059;-63
2021/12/26 07:48:31;;;;;;;2.25;0.80;;;;;;;;;;4965983;28;20057;-63
2021/12/26 07:50:58;;;;;;;1.45;0.75;;;;;;;;;;4969978;28;20059;-66
2021/12/26 07:53:24;;;;;;;1.58;0.88;;;;;;;;;;4966298;28;20109;-64
2021/12/26 07:55:51;;;;;;;1.58;0.70;;;;;;;;;;4968837;28;20066;-64
2021/12/26 07:58:18;;;;;;;2.03;0.75;;;;;;;;;;4968756;28;20050;-61
2021/12/26 08:00:45;;;;;;;3.92;1.10;;;;;;;;;;4986535;28;20056;-63
2021/12/26 08:03:13;;;;;;;1.58;0.77;;;;;;;;;;4989462;28;20060;-66
2021/12/26 08:05:39;;;;;;;3.70;1.00;;;;;;;;;;4969123;28;20078;-63
2021/12/26 08:08:06;;;;;;;1.77;0.77;;;;;;;;;;4985586;28;20193;-61
2021/12/26 08:10:33;;;;;;;3.55;1.20;;;;;;;;;;4992768;28;20394;-63
2021/12/26 08:12:59;;;;;;;0.70;0.35;;;;;;;;;;4987313;28;20141;-60
2021/12/26 08:15:26;;;;;;;1.15;0.63;;;;;;;;;;4972606;28;20137;-61
2021/12/26 08:17:53;;;;;;;2.10;0.73;;;;;;;;;;4988709;28;20065;-61
2021/12/26 08:20:22;;;;;;;2.97;1.02;;;;;;;;;;4975845;28;20101;-62
2021/12/26 08:22:48;;;;;;;;;;;;;;;;;;4970144;28;20062;-61
2021/12/26 08:25:15;;;;;;;2.03;0.52;;;;;;;;;;4966356;28;19925;-58
2021/12/26 08:27:41;;;;;;;2.40;0.82;;;;;;;;;;4985669;28;20062;-62
2021/12/26 08:30:09;;;;;;;1.50;0.80;;;;;;;;;;4987094;28;20051;-63
2021/12/26 08:32:39;;;;;;;2.30;1.00;;;;;;;;;;5003087;28;20057;-65
2021/12/26 08:35:07;;;;;;;2.40;1.08;;;;;;;;;;4970010;28;20058;-63
2021/12/26 08:37:37;;;;;;;1.88;0.80;;;;;;;;;;4970384;28;20121;-65
2021/12/26 08:40:03;;;;;;;2.83;0.90;;;;;;;;;;4976520;28;20135;-63
2021/12/26 08:42:30;;;;;;;1.60;0.75;;;;;;;;;;4983884;28;20094;-61
2021/12/26 08:44:59;;;;;;;1.77;0.82;;;;;;;;;;5004497;28;20062;-62
2021/12/26 08:47:26;;;;;;;1.10;0.63;;;;;;;;;;4987418;28;20082;-63
2021/12/26 08:49:53;;;;;;;1.40;0.68;;;;;;;;;;5004247;28;20065;-61
2021/12/26 08:52:20;;;;;;;4.10;1.00;;;;;;;;;;4994343;28;20058;-61
2021/12/26 08:54:47;;;;;;;2.70;0.95;;;;;;;;;;4967378;28;20117;-66
2021/12/26 08:57:15;;;;;;;1.73;0.93;;;;;;;;;;4964830;28;20062;-64
2021/12/26 08:59:41;;;;;;;2.20;0.82;;;;;;;;;;4969042;28;20060;-63
2021/12/26 09:02:10;;;;;;;2.00;0.80;;;;;;;;;;4963968;28;20065;-64
2021/12/26 09:04:37;;;;;;;4.55;1.10;;;;;;;;;;4930127;29;20058;-62
2021/12/26 09:07:04;;;;;;;2.47;0.90;;;;;;;;;;4925735;28;20052;-65
2021/12/26 09:09:30;;;;;;;1.73;0.85;;;;;;;;;;4929671;28;20066;-65
2021/12/26 09:11:59;;;;;;;1.73;0.98;;;;;;;;;;4926313;28;20083;-64
2021/12/26 09:14:26;;;;;;;2.05;0.80;;;;;;;;;;4929379;28;20056;-65
2021/12/26 09:16:52;;;;;;;1.75;0.68;;;;;;;;;;4926277;28;20051;-65
2021/12/26 09:19:19;;;;;;;2.53;1.10;;;;;;;;;;4930281;29;20111;-61
2021/12/26 09:21:45;;;;;;;2.92;0.95;;;;;;;;;;4925381;29;20051;-64
2021/12/26 09:24:12;;;;;;;1.48;0.77;;;;;;;;;;4929650;28;20059;-60
2021/12/26 09:26:39;;;;;;;1.02;0.52;;;;;;;;;;4929189;29;20047;-65
2021/12/26 09:29:06;;;;;;;2.97;1.00;;;;;;;;;;4941597;28;20063;-65
2021/12/26 09:31:34;;;;;;;1.50;0.77;;;;;;;;;;4945579;28;20051;-60
2021/12/26 09:34:01;;;;;;;2.50;1.07;;;;;;;;;;4909485;29;20071;-64
2021/12/26 09:36:28;;;;;;;2.13;0.80;;;;;;;;;;4910023;29;20066;-60
2021/12/26 09:38:56;;;;;;;4.65;1.60;;;;;;;;;;4928053;28;20071;-61
2021/12/26 09:41:23;;;;;;;2.03;0.90;;;;;;;;;;4929393;29;20058;-62
2021/12/26 09:43:49;;;;;;;2.47;0.65;;;;;;;;;;4925576;29;20059;-65
2021/12/26 09:46:17;;;;;;;3.40;1.13;;;;;;;;;;4929379;28;20111;-58
2021/12/26 09:48:44;;;;;;;2.45;1.10;;;;;;;;;;4925606;29;20055;-64
2021/12/26 09:51:13;;;;;;;2.95;1.00;;;;;;;;;;4930156;28;20062;-59
2021/12/26 09:53:42;;;;;;;3.25;1.30;;;;;;;;;;4925653;28;20051;-65
2021/12/26 09:56:10;;;;;;;3.38;1.27;;;;;;;;;;4930471;28;20063;-63
2021/12/26 09:58:50;;;;;;;1.70;0.88;;;;;;;;;;4939480;28;20048;-64
2021/12/26 10:04:42;;;;;;;2.35;1.15;;;;;;;;;;5108891;27;20386;-65
2021/12/26 10:07:11;;;;;;;1.77;0.93;;;;;;;;;;5026751;28;20060;-66
2021/12/26 10:09:38;;;;;;;3.85;1.50;;;;;;;;;;5020086;28;20061;-67
2021/12/26 10:12:06;;;;;;;1.98;0.75;;;;;;;;;;5007836;28;20053;-65
2021/12/26 10:14:33;;;;;;;4.85;1.20;;;;;;;;;;5020270;28;20081;-67
2021/12/26 10:17:03;;;;;;;2.75;1.02;;;;;;;;;;5026166;28;20065;-67
2021/12/26 10:19:32;;;;;;;3.70;1.52;;;;;;;;;;5022143;28;20069;-59
2021/12/26 10:22:01;;;;;;;2.13;0.95;;;;;;;;;;5026393;28;20057;-57
2021/12/26 10:24:29;;;;;;;1.13;0.77;;;;;;;;;;5022434;28;20112;-58
2021/12/26 10:26:56;;;;;;;4.07;1.48;;;;;;;;;;5050952;28;20049;-55
2021/12/26 10:29:25;;;;;;;4.47;1.25;;;;;;;;;;5058803;28;20107;-62
2021/12/26 10:32:02;;;;;;;3.35;1.10;;;;;;;;;;5045964;28;20056;-57
2021/12/26 10:34:32;;;;;;;1.85;0.90;;;;;;;;;;5041333;28;20067;-59
2021/12/26 10:36:59;;;;;;;1.70;0.88;;;;;;;;;;5045399;28;20087;-60
2021/12/26 10:39:28;;;;;;;2.70;1.15;;;;;;;;;;5042097;28;20122;-54
2021/12/26 10:41:56;;;;;;;2.05;0.82;;;;;;;;;;5041411;28;20056;-58
2021/12/26 10:44:25;;;;;;;3.28;1.35;;;;;;;;;;5045087;28;20052;-61
2021/12/26 10:46:55;;;;;;;5.40;2.20;;;;;;;;;;5042434;28;20045;-59
2021/12/26 10:49:22;;;;;;;3.05;1.25;;;;;;;;;;5045615;28;20102;-59
2021/12/26 10:51:49;;;;;;;4.50;1.80;;;;;;;;;;5042181;28;20139;-59
2021/12/26 10:54:16;;;;;;;4.57;1.70;;;;;;;;;;5046294;28;20061;-59
2021/12/26 10:57:01;;;;;;;8.80;1.95;;;;;;;;;;5041671;28;20057;-59
2021/12/26 10:59:28;;;;;;;3.35;1.45;;;;;;;;;;5044935;28;20057;-57
2021/12/26 11:01:56;;;;;;;4.22;1.75;;;;;;;;;;5040809;28;20080;-57
2021/12/26 11:04:23;;;;;;;4.35;1.92;;;;;;;;;;5041645;28;20061;-59
2021/12/26 11:07:01;;;;;;;5.90;1.58;;;;;;;;;;5031754;28;20056;-57
2021/12/26 11:09:27;;;;;;;3.15;1.55;;;;;;;;;;5040357;28;20060;-60
2021/12/26 11:12:00;;;;;;;4.57;1.42;;;;;;;;;;5038162;28;20045;-59
2021/12/26 11:14:27;;;;;;;5.00;1.60;;;;;;;;;;5016340;28;20046;-62
2021/12/26 11:16:53;;;;;;;3.35;1.30;;;;;;;;;;5012054;28;20090;-57
2021/12/26 11:19:35;;;;;;;4.68;1.70;;;;;;;;;;5028024;28;20057;-60
2021/12/26 11:22:02;;;;;;;3.10;1.40;;;;;;;;;;5023838;28;20148;-55
2021/12/26 11:24:28;;;;;;;4.45;1.45;;;;;;;;;;5028205;28;20058;-59
2021/12/26 11:26:55;;;;;;;4.60;1.45;;;;;;;;;;5024511;28;20064;-54
2021/12/26 11:29:23;;;;;;;2.63;1.27;;;;;;;;;;5028417;28;20116;-56
2021/12/26 11:31:53;;;;;;;3.22;1.40;;;;;;;;;;5024451;28;20064;-58
2021/12/26 11:34:20;;;;;;;3.35;1.60;;;;;;;;;;5027883;28;20061;-55
2021/12/26 11:36:46;;;;;;;4.88;1.65;;;;;;;;;;5028042;28;20126;-55
2021/12/26 11:39:13;;;;;;;3.70;1.55;;;;;;;;;;5026198;28;20160;-55
2021/12/26 11:41:47;;;;;;;5.70;1.70;;;;;;;;;;5027945;28;20057;-58
2021/12/26 11:44:24;;;;;;;5.50;1.58;;;;;;;;;;5018289;28;20120;-55
2021/12/26 11:47:00;;;;;;;4.93;1.63;;;;;;;;;;5015206;28;20133;-57
2021/12/26 11:49:41;;;;;;;1.40;0.60;;;;;;;;;;5019170;28;20057;-57
2021/12/26 11:52:19;;;;;;;4.03;1.38;;;;;;;;;;5014960;28;20057;-55
2021/12/26 11:55:03;;;;;;;5.18;1.88;;;;;;;;;;5012514;28;20053;-54
2021/12/26 11:57:53;;;;;;;3.35;1.33;;;;;;;;;;5012125;28;20053;-54
2021/12/26 12:00:25;;;;;;;6.60;2.08;;;;;;;;;;5016450;28;20065;-56
2021/12/26 12:02:54;;;;;;;2.00;1.08;;;;;;;;;;5012186;28;20053;-58
2021/12/26 12:05:22;;;;;;;1.98;0.77;;;;;;;;;;5018137;28;20099;-57
2021/12/26 12:07:50;;;;;;;3.17;0.90;;;;;;;;;;5017140;28;20058;-55
2021/12/26 12:10:35;;;;;;;3.08;1.35;;;;;;;;;;5016090;28;20080;-59
2021/12/26 12:13:02;;;;;;;4.85;1.92;;;;;;;;;;5013901;28;20045;-52
2021/12/26 12:15:46;;;;;;;3.30;1.52;;;;;;;;;;5015609;28;20061;-57
2021/12/26 12:18:17;;;;;;;4.10;1.73;;;;;;;;;;5018034;28;20054;-60
2021/12/26 12:20:47;;;;;;;3.28;1.55;;;;;;;;;;5017222;28;20116;-57
2021/12/26 12:23:15;;;;;;;4.85;1.73;;;;;;;;;;5020280;28;20131;-58
2021/12/26 12:25:48;;;;;;;3.80;1.42;;;;;;;;;;5017215;28;20561;-61
2021/12/26 12:28:16;;;;;;;4.15;1.67;;;;;;;;;;5020286;28;20316;-60
2021/12/26 12:30:44;;;;;;;3.53;1.35;;;;;;;;;;5021847;28;20060;-57
2021/12/26 12:33:17;;;;;;;1.83;1.17;;;;;;;;;;5037805;28;20063;-55
2021/12/26 12:35:51;;;;;;;2.25;0.95;;;;;;;;;;5015881;28;20057;-58
2021/12/26 12:38:30;;;;;;;3.25;1.60;;;;;;;;;;5024069;28;20072;-59
2021/12/26 12:40:59;;;;;;;4.10;1.38;;;;;;;;;;5016093;28;20080;-57
2021/12/26 12:43:26;;;;;;;4.32;1.83;;;;;;;;;;5022065;28;20057;-60
2021/12/26 12:46:02;;;;;;;8.90;2.05;;;;;;;;;;5014798;28;20409;-58
2021/12/26 12:48:31;;;;;;;4.38;1.90;;;;;;;;;;5018729;28;20054;-56
2021/12/26 12:50:59;;;;;;;10.25;1.65;;;;;;;;;;5016723;28;20095;-57
2021/12/26 12:53:38;;;;;;;4.88;1.80;;;;;;;;;;5027601;28;20057;-57
2021/12/26 12:56:05;;;;;;;3.28;1.10;;;;;;;;;;5013774;28;20042;-58
2021/12/26 12:58:32;;;;;;;4.18;1.90;;;;;;;;;;5016997;28;20061;-58
2021/12/26 13:01:00;;;;;;;6.60;2.40;;;;;;;;;;5016379;28;20058;-61
2021/12/26 13:03:28;;;;;;;4.90;1.80;;;;;;;;;;5024418;28;20056;-60
2021/12/26 13:05:56;;;;;;;2.13;1.27;;;;;;;;;;5017084;28;20061;-56
2021/12/26 13:08:24;;;;;;;4.95;1.35;;;;;;;;;;5019588;28;20574;-59
2021/12/26 13:10:56;;;;;;;6.47;2.17;;;;;;;;;;5015589;28;20049;-56
2021/12/26 13:13:23;;;;;;;6.60;2.45;;;;;;;;;;5027204;28;20072;-60
2021/12/26 13:15:53;;;;;;;4.45;2.05;;;;;;;;;;5014166;28;20058;-61
2021/12/26 13:18:20;;;;;;;2.83;1.20;;;;;;;;;;5020321;28;20053;-55
2021/12/26 13:20:49;;;;;;;4.18;1.60;;;;;;;;;;5018095;28;20061;-55
2021/12/26 13:23:15;;;;;;;;;;;;;;;;;;5017844;28;20058;-60
2021/12/26 13:25:46;;;;;;;4.63;1.85;;;;;;;;;;5026289;28;19996;-59
2021/12/26 13:28:25;;;;;;;5.20;1.77;;;;;;;;;;5015165;28;20053;-56
2021/12/26 13:30:54;;;;;;;7.05;1.98;;;;;;;;;;5024263;28;20056;-57
2021/12/26 13:33:23;;;;;;;1.92;0.88;;;;;;;;;;5013215;28;20053;-57
2021/12/26 13:35:49;;;;;;;1.65;0.80;;;;;;;;;;5018721;28;20129;-57
2021/12/26 13:38:18;;;;;;;5.47;1.83;;;;;;;;;;5015198;28;20140;-57
2021/12/26 13:40:47;;;;;;;6.18;1.58;;;;;;;;;;5024046;28;20081;-61
2021/12/26 13:43:14;;;;;;;3.88;1.50;;;;;;;;;;5014679;28;20045;-59
2021/12/26 13:45:41;;;;;;;2.38;1.13;;;;;;;;;;5017480;28;20046;-60
2021/12/26 13:48:08;;;;;;;5.35;2.30;;;;;;;;;;5018539;28;20046;-60
2021/12/26 13:50:36;;;;;;;5.43;1.98;;;;;;;;;;5018119;28;20069;-61
2021/12/26 13:53:05;;;;;;;6.68;1.90;;;;;;;;;;5016810;28;20096;-60
2021/12/26 13:55:31;;;;;;;;;;;;;;;;;;5023904;28;20139;-59
2021/12/26 13:58:00;;;;;;;7.40;1.98;;;;;;;;;;5017035;28;19932;-58
2021/12/26 14:00:27;;;;;;;6.20;3.03;;;;;;;;;;5018500;28;20110;-53
2021/12/26 14:02:54;;;;;;;9.88;3.80;;;;;;;;;;5014290;28;20045;-55
2021/12/26 14:05:22;;;;;;;8.98;3.38;;;;;;;;;;5016727;28;20546;-58
2021/12/26 14:07:58;;;;;;;15.38;4.35;;;;;;;;;;5008046;28;20050;-56
2021/12/26 14:10:25;;;;;;;5.63;2.08;;;;;;;;;;5022132;28;20065;-55
2021/12/26 14:12:54;;;;;;;8.00;2.88;;;;;;;;;;5009768;28;20046;-58
2021/12/26 14:15:28;;;;;;;;;;;;;;;;;;5023861;28;20054;-55
2021/12/26 14:17:59;;;;;;;6.32;2.25;;;;;;;;;;5023540;28;19921;-57
2021/12/26 14:20:28;;;;;;;9.10;2.67;;;;;;;;;;5012320;28;20053;-59
2021/12/26 14:22:55;;;;;;;7.72;2.22;;;;;;;;;;5011872;28;20046;-58
2021/12/26 14:25:22;;;;;;;7.13;2.22;;;;;;;;;;5010424;28;20050;-55
2021/12/26 14:27:48;;;;;;;9.25;2.58;;;;;;;;;;5012423;28;20050;-58
2021/12/26 14:30:15;;;;;;;8.13;2.55;;;;;;;;;;5009803;28;20284;-58
2021/12/26 14:32:57;;;;;;;7.90;3.10;;;;;;;;;;5023702;28;20065;-56
2021/12/26 14:35:25;;;;;;;6.47;2.17;;;;;;;;;;5013135;28;20065;-53
2021/12/26 14:37:51;;;;;;;6.43;2.55;;;;;;;;;;5012590;28;20057;-61
2021/12/26 14:40:19;;;;;;;7.10;2.35;;;;;;;;;;5012919;28;20111;-55
2021/12/26 14:42:47;;;;;;;6.82;2.55;;;;;;;;;;5013694;28;20073;-57
2021/12/26 14:45:15;;;;;;;3.95;1.65;;;;;;;;;;5014183;28;20058;-53
2021/12/26 14:47:43;;;;;;;7.07;2.83;;;;;;;;;;5015260;28;20061;-56
2021/12/26 14:50:10;;;;;;;;;;;;;;;;;;5013853;28;20046;-58
2021/12/26 14:52:43;;;;;;;4.90;1.83;;;;;;;;;;5020627;28;19921;-57
2021/12/26 14:55:14;;;;;;;4.47;1.98;;;;;;;;;;5019092;28;20144;-57
2021/12/26 14:57:40;;;;;;;7.68;2.83;;;;;;;;;;5016697;28;20054;-58
2021/12/26 15:00:09;;;;;;;4.88;1.92;;;;;;;;;;5023378;28;20285;-56